EDT,Max TemperatureF,Mean TemperatureF,Min TemperatureF,Max Dew PointF,MeanDew PointF,Min DewpointF,Max Humidity, Mean Humidity, Min Humidity, Max Sea Level PressureIn, Mean Sea Level PressureIn, Min Sea Level PressureIn, Max VisibilityMiles, Mean VisibilityMiles, Min VisibilityMiles, Max Wind SpeedMPH, Mean Wind SpeedMPH, Max Gust SpeedMPH,PrecipitationIn, CloudCover, Events, WindDirDegrees
2013-10-1,79,65,52,56,53,45,86,69,46,29.83,29.72,29.63,,,,14,9,24,0.00,,,199
2013-10-2,70,60,50,44,39,35,71,48,28,30.05,29.99,29.85,,,,13,6,,0.00,,,242
2013-10-3,63,57,52,51,47,42,89,72,62,30.04,30.00,29.96,,,,10,3,,0.14,,,83
2013-10-4,60,58,55,54,51,48,83,78,70,30.14,30.07,29.99,,,,22,8,28,0.00,,,35
2013-10-5,57,52,48,49,47,45,90,84,74,30.14,30.04,29.86,,,,9,5,23,0.58,,,91
2013-10-6,68,59,52,60,54,49,94,88,78,29.81,29.65,29.58,,,,18,8,25,0.14,,,234
2013-10-7,54,48,43,49,44,37,89,78,66,30.03,29.78,29.61,,,,21,13,30,0.11,,,316
2013-10-8,68,52,37,53,44,35,89,70,40,30.13,30.07,30.02,,,,18,9,32,0.00,,,189
2013-10-9,75,64,55,52,50,44,84,62,41,30.13,30.10,30.02,,,,15,11,26,0.00,,,192
2013-10-10,73,62,50,52,48,45,90,67,37,30.16,30.13,30.09,,,,10,7,18,0.00,,,191
2013-10-11,70,58,46,53,48,45,93,76,46,30.13,30.07,29.99,,,,13,5,23,0.00,,,190
2013-10-12,71,62,52,59,53,48,90,80,57,29.99,29.92,29.86,,,,18,7,29,0.21,,,193
2013-10-13,54,46,37,46,40,34,90,75,53,30.41,30.25,30.00,,,,17,6,22,0.01,,,245
2013-10-14,57,44,33,46,38,30,89,77,63,30.45,30.40,30.30,,,,12,7,,0.00,,,143
2013-10-15,54,50,46,51,44,37,90,79,68,30.28,29.97,29.68,,,,10,5,17,0.07,,,145
2013-10-16,54,50,46,51,45,35,93,81,63,29.87,29.74,29.62,,,,22,10,29,0.11,,,335
2013-10-17,54,42,30,38,34,28,89,70,48,29.88,29.81,29.75,,,,9,6,,0.00,,,190
2013-10-18,50,44,39,44,40,35,89,81,71,29.83,29.78,29.73,,,,15,7,21,0.05,,,308
2013-10-19,54,45,37,40,36,32,93,76,50,29.82,29.73,29.65,,,,12,5,,0.08,,,182
2013-10-20,50,41,32,39,34,29,92,79,52,29.79,29.74,29.66,,,,8,5,,0.10,,,182
2013-10-21,46,39,32,39,30,21,89,69,47,29.74,29.68,29.61,,,,13,6,21,0.10,,,259
2013-10-22,44,36,30,35,32,25,85,74,57,29.91,29.79,29.63,,,,24,14,40,0.25,,,335
2013-10-23,42,37,33,33,29,27,89,75,57,29.90,29.86,29.84,,,,13,9,22,0.34,,,277
2013-10-24,44,40,37,36,33,28,86,75,60,30.16,30.01,29.88,,,,21,13,30,0.14,,,322
2013-10-25,46,39,33,34,29,23,92,68,43,30.21,30.04,29.61,,,,15,6,29,0.15,,,227
2013-10-26,46,42,39,38,33,30,82,68,54,29.97,29.75,29.54,,,,29,13,41,0.15,,,324
2013-10-27,46,40,35,37,32,29,89,71,50,30.09,29.91,29.81,,,,25,8,34,0.04,,,268
2013-10-28,42,40,36,32,26,23,70,63,55,30.51,30.41,30.13,,,,30,19,37,0.00,,,15
2013-10-29,41,33,27,32,25,19,89,71,43,30.50,30.40,30.22,,,,7,4,,0.04,,,189
2013-10-30,51,42,35,46,39,32,89,86,79,30.21,30.05,29.78,,,,8,2,,0.01,,,181
2013-10-31,54,51,48,51,49,47,97,92,89,29.77,29.43,29.11,,,,14,4,,0.35,,,301